sensor_id;sensor_type;location;lat;lon;timestamp;temperature;humidity
44121;DHT22;29783;52.504;13.478;2023-05-21T03:48:22;13.80;93.10
44121;DHT22;29783;52.504;13.478;2023-05-21T03:50:48;13.90;92.90
44121;DHT22;29783;52.504;13.478;2023-05-21T03:53:13;14.00;92.90
44121;DHT22;29783;52.504;13.478;2023-05-21T03:55:40;14.00;92.80
44121;DHT22;29783;52.504;13.478;2023-05-21T03:58:09;14.10;92.70
44121;DHT22;29783;52.504;13.478;2023-05-21T04:00:38;14.10;92.50
44121;DHT22;29783;52.504;13.478;2023-05-21T04:03:05;14.20;92.40
44121;DHT22;29783;52.504;13.478;2023-05-21T04:05:32;14.20;92.20
44121;DHT22;29783;52.504;13.478;2023-05-21T04:07:58;14.30;91.90
44121;DHT22;29783;52.504;13.478;2023-05-21T04:10:26;14.30;91.80
44121;DHT22;29783;52.504;13.478;2023-05-21T04:12:51;14.40;91.60
44121;DHT22;29783;52.504;13.478;2023-05-21T04:15:18;14.50;91.50
44121;DHT22;29783;52.504;13.478;2023-05-21T04:17:44;14.50;91.40
44121;DHT22;29783;52.504;13.478;2023-05-21T04:20:12;14.60;91.20
44121;DHT22;29783;52.504;13.478;2023-05-21T04:22:38;14.70;90.90
44121;DHT22;29783;52.504;13.478;2023-05-21T04:25:05;14.80;90.70
44121;DHT22;29783;52.504;13.478;2023-05-21T04:27:31;14.90;90.40
44121;DHT22;29783;52.504;13.478;2023-05-21T04:29:57;15.00;90.20
44121;DHT22;29783;52.504;13.478;2023-05-21T04:32:27;15.10;89.70
44121;DHT22;29783;52.504;13.478;2023-05-21T04:34:55;15.20;89.40
44121;DHT22;29783;52.504;13.478;2023-05-21T04:37:20;15.30;89.10
44121;DHT22;29783;52.504;13.478;2023-05-21T04:39:49;15.40;88.60
44121;DHT22;29783;52.504;13.478;2023-05-21T04:42:16;15.50;88.40
44121;DHT22;29783;52.504;13.478;2023-05-21T04:44:43;15.60;88.00
44121;DHT22;29783;52.504;13.478;2023-05-21T04:47:09;15.70;87.80
44121;DHT22;29783;52.504;13.478;2023-05-21T04:49:36;15.80;87.40
44121;DHT22;29783;52.504;13.478;2023-05-21T04:52:02;16.00;87.20
44121;DHT22;29783;52.504;13.478;2023-05-21T04:54:31;16.10;86.50
44121;DHT22;29783;52.504;13.478;2023-05-21T04:56:57;16.20;86.10
44121;DHT22;29783;52.504;13.478;2023-05-21T04:59:23;16.30;85.70
44121;DHT22;29783;52.504;13.478;2023-05-21T05:01:50;16.40;85.60
44121;DHT22;29783;52.504;13.478;2023-05-21T05:04:16;16.60;85.00
44121;DHT22;29783;52.504;13.478;2023-05-21T05:06:42;16.70;84.50
44121;DHT22;29783;52.504;13.478;2023-05-21T05:09:09;16.80;84.00
44121;DHT22;29783;52.504;13.478;2023-05-21T05:11:36;16.90;83.80
44121;DHT22;29783;52.504;13.478;2023-05-21T05:14:02;17.10;83.50
44121;DHT22;29783;52.504;13.478;2023-05-21T05:16:28;17.20;83.00
44121;DHT22;29783;52.504;13.478;2023-05-21T05:18:55;17.20;82.60
44121;DHT22;29783;52.504;13.478;2023-05-21T05:21:21;17.30;82.40
44121;DHT22;29783;52.504;13.478;2023-05-21T05:23:48;17.40;82.30
44121;DHT22;29783;52.504;13.478;2023-05-21T05:26:14;17.50;81.90
44121;DHT22;29783;52.504;13.478;2023-05-21T05:28:42;17.50;81.20
44121;DHT22;29783;52.504;13.478;2023-05-21T05:31:08;17.60;80.90
44121;DHT22;29783;52.504;13.478;2023-05-21T05:33:33;17.70;80.80
44121;DHT22;29783;52.504;13.478;2023-05-21T05:35:59;17.80;80.60
44121;DHT22;29783;52.504;13.478;2023-05-21T05:38:26;17.90;80.30
44121;DHT22;29783;52.504;13.478;2023-05-21T05:40:52;18.00;79.80
44121;DHT22;29783;52.504;13.478;2023-05-21T05:43:17;18.10;79.80
44121;DHT22;29783;52.504;13.478;2023-05-21T05:54:09;18.40;77.80
44121;DHT22;29783;52.504;13.478;2023-05-21T05:56:35;18.50;77.30
44121;DHT22;29783;52.504;13.478;2023-05-21T05:59:01;18.60;77.30
44121;DHT22;29783;52.504;13.478;2023-05-21T06:01:27;18.60;76.80
44121;DHT22;29783;52.504;13.478;2023-05-21T06:03:52;18.70;76.30
44121;DHT22;29783;52.504;13.478;2023-05-21T06:06:18;19.00;76.20
44121;DHT22;29783;52.504;13.478;2023-05-21T06:08:44;19.10;75.70
44121;DHT22;29783;52.504;13.478;2023-05-21T06:11:11;19.30;75.00
44121;DHT22;29783;52.504;13.478;2023-05-21T06:13:37;19.20;74.30
44121;DHT22;29783;52.504;13.478;2023-05-21T06:16:03;19.30;74.20
44121;DHT22;29783;52.504;13.478;2023-05-21T06:18:29;19.50;73.70
44121;DHT22;29783;52.504;13.478;2023-05-21T06:20:55;19.60;73.10
44121;DHT22;29783;52.504;13.478;2023-05-21T06:23:20;19.60;73.30
44121;DHT22;29783;52.504;13.478;2023-05-21T06:25:46;19.60;73.10
44121;DHT22;29783;52.504;13.478;2023-05-21T06:28:11;19.50;73.30
44121;DHT22;29783;52.504;13.478;2023-05-21T06:30:37;19.70;72.80
44121;DHT22;29783;52.504;13.478;2023-05-21T06:33:03;19.70;73.00
44121;DHT22;29783;52.504;13.478;2023-05-21T06:35:28;19.80;72.30
44121;DHT22;29783;52.504;13.478;2023-05-21T06:37:54;19.80;72.00
44121;DHT22;29783;52.504;13.478;2023-05-21T06:40:20;19.90;72.50
44121;DHT22;29783;52.504;13.478;2023-05-21T06:42:46;20.00;71.60
44121;DHT22;29783;52.504;13.478;2023-05-21T06:45:11;20.10;71.50
44121;DHT22;29783;52.504;13.478;2023-05-21T06:47:37;20.20;71.10
44121;DHT22;29783;52.504;13.478;2023-05-21T06:50:03;20.20;70.90
44121;DHT22;29783;52.504;13.478;2023-05-21T06:52:28;20.20;71.00
44121;DHT22;29783;52.504;13.478;2023-05-21T06:54:55;20.20;70.50
44121;DHT22;29783;52.504;13.478;2023-05-21T06:57:21;20.20;70.70
44121;DHT22;29783;52.504;13.478;2023-05-21T06:59:47;20.30;70.40
44121;DHT22;29783;52.504;13.478;2023-05-21T07:02:12;20.20;70.60
44121;DHT22;29783;52.504;13.478;2023-05-21T07:04:38;20.30;70.40
44121;DHT22;29783;52.504;13.478;2023-05-21T07:07:04;20.20;71.20
44121;DHT22;29783;52.504;13.478;2023-05-21T07:09:30;20.20;70.70
44121;DHT22;29783;52.504;13.478;2023-05-21T07:11:56;20.20;71.20
44121;DHT22;29783;52.504;13.478;2023-05-21T07:14:23;20.20;70.80
44121;DHT22;29783;52.504;13.478;2023-05-21T07:16:49;20.40;70.50
44121;DHT22;29783;52.504;13.478;2023-05-21T07:19:15;20.50;70.60
44121;DHT22;29783;52.504;13.478;2023-05-21T07:21:40;20.70;69.30
44121;DHT22;29783;52.504;13.478;2023-05-21T07:24:06;20.80;68.70
44121;DHT22;29783;52.504;13.478;2023-05-21T07:26:32;21.00;68.30
44121;DHT22;29783;52.504;13.478;2023-05-21T07:28:57;21.20;67.90
44121;DHT22;29783;52.504;13.478;2023-05-21T07:31:23;21.40;67.30
44121;DHT22;29783;52.504;13.478;2023-05-21T07:33:49;21.50;66.70
44121;DHT22;29783;52.504;13.478;2023-05-21T07:36:15;21.90;65.60
44121;DHT22;29783;52.504;13.478;2023-05-21T07:38:40;22.00;65.30
44121;DHT22;29783;52.504;13.478;2023-05-21T07:41:06;22.10;64.30
44121;DHT22;29783;52.504;13.478;2023-05-21T07:43:32;22.10;64.30
44121;DHT22;29783;52.504;13.478;2023-05-21T07:45:58;22.30;64.00
44121;DHT22;29783;52.504;13.478;2023-05-21T07:48:23;22.30;64.20
44121;DHT22;29783;52.504;13.478;2023-05-21T07:50:49;22.50;63.90
44121;DHT22;29783;52.504;13.478;2023-05-21T07:53:17;22.40;63.70
44121;DHT22;29783;52.504;13.478;2023-05-21T07:55:42;22.60;63.30
44121;DHT22;29783;52.504;13.478;2023-05-21T07:58:15;22.60;62.50
44121;DHT22;29783;52.504;13.478;2023-05-21T08:00:43;22.70;62.70
44121;DHT22;29783;52.504;13.478;2023-05-21T08:03:09;22.80;61.90
44121;DHT22;29783;52.504;13.478;2023-05-21T08:05:36;22.90;61.70
44121;DHT22;29783;52.504;13.478;2023-05-21T08:08:02;23.00;61.30
44121;DHT22;29783;52.504;13.478;2023-05-21T08:10:29;23.20;61.10
44121;DHT22;29783;52.504;13.478;2023-05-21T08:12:55;23.20;60.90
44121;DHT22;29783;52.504;13.478;2023-05-21T08:15:22;23.30;61.10
44121;DHT22;29783;52.504;13.478;2023-05-21T08:17:47;23.30;61.10
44121;DHT22;29783;52.504;13.478;2023-05-21T08:20:13;23.20;60.30
44121;DHT22;29783;52.504;13.478;2023-05-21T08:22:39;23.30;60.20
44121;DHT22;29783;52.504;13.478;2023-05-21T08:25:06;23.40;59.60
44121;DHT22;29783;52.504;13.478;2023-05-21T08:27:32;23.50;59.40
44121;DHT22;29783;52.504;13.478;2023-05-21T08:29:57;23.60;59.70
44121;DHT22;29783;52.504;13.478;2023-05-21T08:32:23;23.80;59.50
44121;DHT22;29783;52.504;13.478;2023-05-21T08:34:48;24.00;58.30
44121;DHT22;29783;52.504;13.478;2023-05-21T08:37:14;23.90;58.20
44121;DHT22;29783;52.504;13.478;2023-05-21T08:39:40;23.90;58.10
44121;DHT22;29783;52.504;13.478;2023-05-21T08:42:14;24.20;58.30
44121;DHT22;29783;52.504;13.478;2023-05-21T08:44:47;24.30;57.50
44121;DHT22;29783;52.504;13.478;2023-05-21T08:47:15;24.50;56.80
44121;DHT22;29783;52.504;13.478;2023-05-21T08:49:43;24.70;55.90
44121;DHT22;29783;52.504;13.478;2023-05-21T08:52:13;24.80;56.00
44121;DHT22;29783;52.504;13.478;2023-05-21T08:54:39;24.80;55.50
44121;DHT22;29783;52.504;13.478;2023-05-21T08:57:04;25.00;54.10
44121;DHT22;29783;52.504;13.478;2023-05-21T08:59:30;25.20;53.50
44121;DHT22;29783;52.504;13.478;2023-05-21T09:01:57;25.20;53.60
44121;DHT22;29783;52.504;13.478;2023-05-21T09:04:24;25.50;52.90
44121;DHT22;29783;52.504;13.478;2023-05-21T09:06:50;25.70;52.50
44121;DHT22;29783;52.504;13.478;2023-05-21T09:09:31;25.70;52.10
44121;DHT22;29783;52.504;13.478;2023-05-21T09:11:57;25.60;52.00
44121;DHT22;29783;52.504;13.478;2023-05-21T09:14:23;25.70;52.60
44121;DHT22;29783;52.504;13.478;2023-05-21T09:16:50;25.70;51.80
44121;DHT22;29783;52.504;13.478;2023-05-21T09:19:16;25.70;51.70
44121;DHT22;29783;52.504;13.478;2023-05-21T09:21:44;25.70;52.00
44121;DHT22;29783;52.504;13.478;2023-05-21T09:24:10;25.60;52.50
44121;DHT22;29783;52.504;13.478;2023-05-21T09:26:35;25.70;51.90
44121;DHT22;29783;52.504;13.478;2023-05-21T09:29:01;25.70;52.00
44121;DHT22;29783;52.504;13.478;2023-05-21T09:31:28;25.90;51.70
44121;DHT22;29783;52.504;13.478;2023-05-21T09:33:54;26.00;51.70
44121;DHT22;29783;52.504;13.478;2023-05-21T09:36:20;26.30;50.80
44121;DHT22;29783;52.504;13.478;2023-05-21T09:38:49;26.20;50.80
44121;DHT22;29783;52.504;13.478;2023-05-21T09:41:17;26.10;51.30
44121;DHT22;29783;52.504;13.478;2023-05-21T09:43:43;26.20;49.80
44121;DHT22;29783;52.504;13.478;2023-05-21T09:46:09;26.10;50.20
44121;DHT22;29783;52.504;13.478;2023-05-21T09:48:41;26.20;50.20
44121;DHT22;29783;52.504;13.478;2023-05-21T09:51:15;26.40;50.20
44121;DHT22;29783;52.504;13.478;2023-05-21T09:56:12;27.00;48.70
44121;DHT22;29783;52.504;13.478;2023-05-21T09:58:38;27.20;48.50
44121;DHT22;29783;52.504;13.478;2023-05-21T10:01:04;26.80;48.70
44121;DHT22;29783;52.504;13.478;2023-05-21T10:03:31;26.90;49.30
44121;DHT22;29783;52.504;13.478;2023-05-21T10:05:58;26.90;48.80
44121;DHT22;29783;52.504;13.478;2023-05-21T10:08:26;26.90;48.80
44121;DHT22;29783;52.504;13.478;2023-05-21T10:10:54;26.70;48.80
44121;DHT22;29783;52.504;13.478;2023-05-21T10:13:22;26.70;49.20
44121;DHT22;29783;52.504;13.478;2023-05-21T10:15:53;26.80;48.70
44121;DHT22;29783;52.504;13.478;2023-05-21T10:18:23;27.00;48.10
44121;DHT22;29783;52.504;13.478;2023-05-21T10:20:50;27.10;48.20
44121;DHT22;29783;52.504;13.478;2023-05-21T10:23:17;27.10;48.10
44121;DHT22;29783;52.504;13.478;2023-05-21T10:25:44;27.20;48.60
44121;DHT22;29783;52.504;13.478;2023-05-21T10:28:11;27.30;47.20
44121;DHT22;29783;52.504;13.478;2023-05-21T10:30:41;27.20;47.20
44121;DHT22;29783;52.504;13.478;2023-05-21T10:33:06;27.50;47.10
44121;DHT22;29783;52.504;13.478;2023-05-21T10:35:33;27.40;47.20
44121;DHT22;29783;52.504;13.478;2023-05-21T10:38:03;27.70;46.30
44121;DHT22;29783;52.504;13.478;2023-05-21T10:40:28;27.80;45.60
44121;DHT22;29783;52.504;13.478;2023-05-21T10:49:29;28.60;44.50
44121;DHT22;29783;52.504;13.478;2023-05-21T10:55:16;29.40;42.30
44121;DHT22;29783;52.504;13.478;2023-05-21T11:00:18;29.50;40.80
44121;DHT22;29783;52.504;13.478;2023-05-21T11:02:45;29.60;40.90
44121;DHT22;29783;52.504;13.478;2023-05-21T11:05:13;29.50;40.60
44121;DHT22;29783;52.504;13.478;2023-05-21T11:07:52;29.50;40.20
44121;DHT22;29783;52.504;13.478;2023-05-21T11:10:36;29.30;40.40
44121;DHT22;29783;52.504;13.478;2023-05-21T11:13:14;29.20;40.70
44121;DHT22;29783;52.504;13.478;2023-05-21T11:21:17;29.50;40.40
44121;DHT22;29783;52.504;13.478;2023-05-21T11:23:54;29.40;40.70
44121;DHT22;29783;52.504;13.478;2023-05-21T11:26:29;29.40;40.40
44121;DHT22;29783;52.504;13.478;2023-05-21T11:29:24;29.10;40.00
44121;DHT22;29783;52.504;13.478;2023-05-21T11:31:59;29.30;40.60
44121;DHT22;29783;52.504;13.478;2023-05-21T11:34:43;29.40;39.40
44121;DHT22;29783;52.504;13.478;2023-05-21T11:39:42;29.40;39.90
44121;DHT22;29783;52.504;13.478;2023-05-21T11:42:08;29.60;39.90
44121;DHT22;29783;52.504;13.478;2023-05-21T11:44:38;29.60;39.90
44121;DHT22;29783;52.504;13.478;2023-05-21T11:47:05;29.90;39.10
44121;DHT22;29783;52.504;13.478;2023-05-21T11:49:31;30.10;38.90
44121;DHT22;29783;52.504;13.478;2023-05-21T11:52:00;30.20;38.10
44121;DHT22;29783;52.504;13.478;2023-05-21T11:54:27;30.30;37.80
44121;DHT22;29783;52.504;13.478;2023-05-21T11:56:59;30.30;37.60
44121;DHT22;29783;52.504;13.478;2023-05-21T11:59:27;30.40;37.60
44121;DHT22;29783;52.504;13.478;2023-05-21T12:01:54;30.90;36.80
44121;DHT22;29783;52.504;13.478;2023-05-21T12:04:20;31.10;36.70
44121;DHT22;29783;52.504;13.478;2023-05-21T12:06:46;31.30;36.00
44121;DHT22;29783;52.504;13.478;2023-05-21T12:09:12;31.90;34.30
44121;DHT22;29783;52.504;13.478;2023-05-21T12:11:42;32.20;34.10
44121;DHT22;29783;52.504;13.478;2023-05-21T12:14:09;32.30;34.00
44121;DHT22;29783;52.504;13.478;2023-05-21T12:16:35;32.80;33.00
44121;DHT22;29783;52.504;13.478;2023-05-21T12:19:02;33.10;33.10
44121;DHT22;29783;52.504;13.478;2023-05-21T12:21:29;33.50;32.00
44121;DHT22;29783;52.504;13.478;2023-05-21T12:23:55;33.10;32.50
44121;DHT22;29783;52.504;13.478;2023-05-21T12:26:22;32.30;33.40
44121;DHT22;29783;52.504;13.478;2023-05-21T12:28:54;32.70;33.00
44121;DHT22;29783;52.504;13.478;2023-05-21T12:31:21;33.40;31.90
44121;DHT22;29783;52.504;13.478;2023-05-21T12:33:50;34.10;30.90
44121;DHT22;29783;52.504;13.478;2023-05-21T12:36:28;33.60;31.30
44121;DHT22;29783;52.504;13.478;2023-05-21T12:38:54;34.40;30.80
44121;DHT22;29783;52.504;13.478;2023-05-21T12:41:21;34.10;30.70
44121;DHT22;29783;52.504;13.478;2023-05-21T12:43:47;33.70;30.80
44121;DHT22;29783;52.504;13.478;2023-05-21T12:46:15;33.70;31.20
44121;DHT22;29783;52.504;13.478;2023-05-21T12:48:52;34.10;30.80
44121;DHT22;29783;52.504;13.478;2023-05-21T12:51:19;35.00;29.70
44121;DHT22;29783;52.504;13.478;2023-05-21T12:53:45;35.10;29.50
44121;DHT22;29783;52.504;13.478;2023-05-21T12:56:12;35.40;29.10
44121;DHT22;29783;52.504;13.478;2023-05-21T12:58:39;36.20;28.30
44121;DHT22;29783;52.504;13.478;2023-05-21T13:01:10;36.00;28.20
44121;DHT22;29783;52.504;13.478;2023-05-21T13:03:40;35.10;29.30
44121;DHT22;29783;52.504;13.478;2023-05-21T13:06:07;34.50;30.00
44121;DHT22;29783;52.504;13.478;2023-05-21T13:08:33;33.90;31.20
44121;DHT22;29783;52.504;13.478;2023-05-21T13:11:03;33.50;32.00
44121;DHT22;29783;52.504;13.478;2023-05-21T13:13:29;33.30;32.10
44121;DHT22;29783;52.504;13.478;2023-05-21T13:15:55;33.60;32.00
44121;DHT22;29783;52.504;13.478;2023-05-21T13:18:21;34.30;31.30
44121;DHT22;29783;52.504;13.478;2023-05-21T13:20:47;33.80;31.30
44121;DHT22;29783;52.504;13.478;2023-05-21T13:23:13;33.10;32.10
44121;DHT22;29783;52.504;13.478;2023-05-21T13:25:40;32.40;33.50
44121;DHT22;29783;52.504;13.478;2023-05-21T13:28:05;31.70;34.40
44121;DHT22;29783;52.504;13.478;2023-05-21T13:30:34;31.50;35.20
44121;DHT22;29783;52.504;13.478;2023-05-21T13:33:00;31.10;35.30
44121;DHT22;29783;52.504;13.478;2023-05-21T13:35:26;31.90;34.40
44121;DHT22;29783;52.504;13.478;2023-05-21T13:37:51;31.60;34.90
44121;DHT22;29783;52.504;13.478;2023-05-21T13:40:17;31.60;34.80
44121;DHT22;29783;52.504;13.478;2023-05-21T13:42:45;32.70;33.90
44121;DHT22;29783;52.504;13.478;2023-05-21T13:45:12;34.20;31.60
44121;DHT22;29783;52.504;13.478;2023-05-21T13:47:38;34.60;31.10
44121;DHT22;29783;52.504;13.478;2023-05-21T13:50:04;34.70;31.20
44121;DHT22;29783;52.504;13.478;2023-05-21T13:52:30;34.10;31.10
44121;DHT22;29783;52.504;13.478;2023-05-21T13:54:56;33.40;32.00
44121;DHT22;29783;52.504;13.478;2023-05-21T13:57:21;33.20;32.10
44121;DHT22;29783;52.504;13.478;2023-05-21T13:59:47;32.90;32.60
44121;DHT22;29783;52.504;13.478;2023-05-21T14:02:15;32.90;32.90
44121;DHT22;29783;52.504;13.478;2023-05-21T14:04:40;33.40;32.20
44121;DHT22;29783;52.504;13.478;2023-05-21T14:07:06;33.50;31.90
44121;DHT22;29783;52.504;13.478;2023-05-21T14:09:32;33.60;31.50
44121;DHT22;29783;52.504;13.478;2023-05-21T14:11:57;33.90;30.70
44121;DHT22;29783;52.504;13.478;2023-05-21T14:14:23;33.60;31.30
44121;DHT22;29783;52.504;13.478;2023-05-21T14:16:49;33.90;31.10
44121;DHT22;29783;52.504;13.478;2023-05-21T14:19:15;33.90;30.70
44121;DHT22;29783;52.504;13.478;2023-05-21T14:21:41;33.90;30.70
44121;DHT22;29783;52.504;13.478;2023-05-21T14:24:07;33.60;31.10
44121;DHT22;29783;52.504;13.478;2023-05-21T14:26:33;33.60;30.90
44121;DHT22;29783;52.504;13.478;2023-05-21T14:29:01;33.70;31.30
44121;DHT22;29783;52.504;13.478;2023-05-21T14:31:27;33.60;31.50
44121;DHT22;29783;52.504;13.478;2023-05-21T14:33:52;33.60;31.70
44121;DHT22;29783;52.504;13.478;2023-05-21T14:36:18;33.00;31.60
44121;DHT22;29783;52.504;13.478;2023-05-21T14:38:44;32.90;31.90
44121;DHT22;29783;52.504;13.478;2023-05-21T14:41:10;33.10;31.80
44121;DHT22;29783;52.504;13.478;2023-05-21T14:43:35;33.40;31.50
44121;DHT22;29783;52.504;13.478;2023-05-21T14:46:01;33.50;31.20
44121;DHT22;29783;52.504;13.478;2023-05-21T14:48:27;33.20;31.40
44121;DHT22;29783;52.504;13.478;2023-05-21T14:50:52;33.60;30.60
44121;DHT22;29783;52.504;13.478;2023-05-21T14:53:18;33.50;31.10
44121;DHT22;29783;52.504;13.478;2023-05-21T14:55:44;33.20;31.00
44121;DHT22;29783;52.504;13.478;2023-05-21T14:58:10;32.90;31.40
44121;DHT22;29783;52.504;13.478;2023-05-21T15:00:37;32.50;31.80
44121;DHT22;29783;52.504;13.478;2023-05-21T15:03:03;32.40;32.20
44121;DHT22;29783;52.504;13.478;2023-05-21T15:05:29;32.50;32.00
44121;DHT22;29783;52.504;13.478;2023-05-21T15:07:55;32.60;31.70
44121;DHT22;29783;52.504;13.478;2023-05-21T15:10:25;32.60;31.80
44121;DHT22;29783;52.504;13.478;2023-05-21T15:12:52;32.60;31.40
44121;DHT22;29783;52.504;13.478;2023-05-21T15:15:18;32.60;31.80
44121;DHT22;29783;52.504;13.478;2023-05-21T15:17:46;32.80;31.40
44121;DHT22;29783;52.504;13.478;2023-05-21T15:20:11;32.70;31.70
44121;DHT22;29783;52.504;13.478;2023-05-21T15:22:37;32.60;31.70
44121;DHT22;29783;52.504;13.478;2023-05-21T15:25:03;32.60;31.50
44121;DHT22;29783;52.504;13.478;2023-05-21T15:27:29;32.40;31.90
44121;DHT22;29783;52.504;13.478;2023-05-21T15:29:54;32.30;32.00
44121;DHT22;29783;52.504;13.478;2023-05-21T15:32:20;32.40;31.60
44121;DHT22;29783;52.504;13.478;2023-05-21T15:34:47;32.10;32.10
44121;DHT22;29783;52.504;13.478;2023-05-21T15:37:12;31.40;32.80
44121;DHT22;29783;52.504;13.478;2023-05-21T15:39:45;31.10;33.40
44121;DHT22;29783;52.504;13.478;2023-05-21T15:42:11;31.10;33.80
44121;DHT22;29783;52.504;13.478;2023-05-21T15:44:39;31.00;33.90
44121;DHT22;29783;52.504;13.478;2023-05-21T15:47:06;30.80;34.00
44121;DHT22;29783;52.504;13.478;2023-05-21T15:49:31;30.90;34.00
44121;DHT22;29783;52.504;13.478;2023-05-21T15:51:57;30.70;34.00
44121;DHT22;29783;52.504;13.478;2023-05-21T15:54:28;30.80;33.70
44121;DHT22;29783;52.504;13.478;2023-05-21T15:56:54;30.60;33.80
44121;DHT22;29783;52.504;13.478;2023-05-21T15:59:20;30.60;33.90
44121;DHT22;29783;52.504;13.478;2023-05-21T16:01:46;30.30;34.00
44121;DHT22;29783;52.504;13.478;2023-05-21T16:04:11;30.50;33.70
44121;DHT22;29783;52.504;13.478;2023-05-21T16:06:37;30.50;34.20
44121;DHT22;29783;52.504;13.478;2023-05-21T16:09:03;30.60;33.80
44121;DHT22;29783;52.504;13.478;2023-05-21T16:11:29;30.60;34.10
44121;DHT22;29783;52.504;13.478;2023-05-21T16:13:55;30.20;34.00
44121;DHT22;29783;52.504;13.478;2023-05-21T16:16:21;30.10;34.50
44121;DHT22;29783;52.504;13.478;2023-05-21T16:18:47;30.10;34.20
44121;DHT22;29783;52.504;13.478;2023-05-21T16:21:13;30.80;33.60
44121;DHT22;29783;52.504;13.478;2023-05-21T16:23:40;31.50;32.60
44121;DHT22;29783;52.504;13.478;2023-05-21T16:26:06;32.30;31.40
44121;DHT22;29783;52.504;13.478;2023-05-21T16:28:32;32.50;31.10
44121;DHT22;29783;52.504;13.478;2023-05-21T16:30:58;32.40;30.70
44121;DHT22;29783;52.504;13.478;2023-05-21T16:33:24;32.30;30.80
44121;DHT22;29783;52.504;13.478;2023-05-21T16:35:50;32.00;30.90
44121;DHT22;29783;52.504;13.478;2023-05-21T16:38:16;31.80;31.50
44121;DHT22;29783;52.504;13.478;2023-05-21T16:40:41;31.60;31.30
44121;DHT22;29783;52.504;13.478;2023-05-21T16:43:07;31.40;31.60
44121;DHT22;29783;52.504;13.478;2023-05-21T16:45:40;30.80;32.40
44121;DHT22;29783;52.504;13.478;2023-05-21T16:48:06;30.60;32.90
44121;DHT22;29783;52.504;13.478;2023-05-21T16:50:32;30.20;33.30
44121;DHT22;29783;52.504;13.478;2023-05-21T16:52:58;30.00;33.80
44121;DHT22;29783;52.504;13.478;2023-05-21T16:55:27;29.80;33.90
44121;DHT22;29783;52.504;13.478;2023-05-21T16:57:52;29.60;34.20
44121;DHT22;29783;52.504;13.478;2023-05-21T17:00:18;29.70;34.20
44121;DHT22;29783;52.504;13.478;2023-05-21T17:02:44;29.70;33.90
44121;DHT22;29783;52.504;13.478;2023-05-21T17:05:09;29.30;34.70
44121;DHT22;29783;52.504;13.478;2023-05-21T17:07:35;28.90;35.10
44121;DHT22;29783;52.504;13.478;2023-05-21T17:10:00;28.90;35.30
44121;DHT22;29783;52.504;13.478;2023-05-21T17:12:26;28.60;35.70
44121;DHT22;29783;52.504;13.478;2023-05-21T17:14:52;28.40;35.80
44121;DHT22;29783;52.504;13.478;2023-05-21T17:17:18;28.10;36.40
44121;DHT22;29783;52.504;13.478;2023-05-21T17:19:43;27.90;36.90
44121;DHT22;29783;52.504;13.478;2023-05-21T17:22:09;27.70;37.30
44121;DHT22;29783;52.504;13.478;2023-05-21T17:24:35;27.60;38.00
44121;DHT22;29783;52.504;13.478;2023-05-21T17:27:00;27.40;38.10
44121;DHT22;29783;52.504;13.478;2023-05-21T17:29:26;27.20;38.10
44121;DHT22;29783;52.504;13.478;2023-05-21T17:31:53;27.20;38.60
44121;DHT22;29783;52.504;13.478;2023-05-21T17:34:18;27.00;38.80
44121;DHT22;29783;52.504;13.478;2023-05-21T17:36:44;26.90;38.90
44121;DHT22;29783;52.504;13.478;2023-05-21T17:39:10;26.70;39.30
44121;DHT22;29783;52.504;13.478;2023-05-21T17:41:36;26.70;39.50
44121;DHT22;29783;52.504;13.478;2023-05-21T17:44:01;26.60;39.70
44121;DHT22;29783;52.504;13.478;2023-05-21T17:49:02;26.30;40.40
44121;DHT22;29783;52.504;13.478;2023-05-21T17:51:30;26.20;40.30
44121;DHT22;29783;52.504;13.478;2023-05-21T17:53:56;26.10;40.40
44121;DHT22;29783;52.504;13.478;2023-05-21T17:56:21;26.00;40.70
44121;DHT22;29783;52.504;13.478;2023-05-21T17:58:48;25.90;40.70
44121;DHT22;29783;52.504;13.478;2023-05-21T18:01:14;25.80;40.70
44121;DHT22;29783;52.504;13.478;2023-05-21T18:03:40;25.70;41.00
44121;DHT22;29783;52.504;13.478;2023-05-21T18:06:06;25.60;40.90
44121;DHT22;29783;52.504;13.478;2023-05-21T18:08:33;25.50;41.00
44121;DHT22;29783;52.504;13.478;2023-05-21T18:10:58;25.40;41.30
44121;DHT22;29783;52.504;13.478;2023-05-21T18:13:26;25.30;41.10
44121;DHT22;29783;52.504;13.478;2023-05-21T18:15:52;25.30;41.10
44121;DHT22;29783;52.504;13.478;2023-05-21T18:18:17;25.20;41.40
44121;DHT22;29783;52.504;13.478;2023-05-21T18:20:43;24.90;41.70
44121;DHT22;29783;52.504;13.478;2023-05-21T18:23:09;24.80;41.80
44121;DHT22;29783;52.504;13.478;2023-05-21T18:25:38;24.60;42.70
44121;DHT22;29783;52.504;13.478;2023-05-21T18:28:04;24.50;42.70
44121;DHT22;29783;52.504;13.478;2023-05-21T18:30:30;24.30;42.70
44121;DHT22;29783;52.504;13.478;2023-05-21T18:32:56;24.20;43.40
44121;DHT22;29783;52.504;13.478;2023-05-21T18:35:21;24.10;43.40
44121;DHT22;29783;52.504;13.478;2023-05-21T18:37:47;24.10;43.50
44121;DHT22;29783;52.504;13.478;2023-05-21T18:40:13;23.90;44.50
44121;DHT22;29783;52.504;13.478;2023-05-21T18:42:40;23.70;44.20
44121;DHT22;29783;52.504;13.478;2023-05-21T19:34:04;21.80;48.10
44121;DHT22;29783;52.504;13.478;2023-05-21T19:36:35;21.80;48.20
44121;DHT22;29783;52.504;13.478;2023-05-21T19:39:01;21.70;48.30
44121;DHT22;29783;52.504;13.478;2023-05-21T19:41:28;21.70;48.70
44121;DHT22;29783;52.504;13.478;2023-05-21T19:43:54;21.70;48.70
44121;DHT22;29783;52.504;13.478;2023-05-21T19:46:19;21.70;48.10
44121;DHT22;29783;52.504;13.478;2023-05-21T19:48:45;21.70;48.40
44121;DHT22;29783;52.504;13.478;2023-05-21T19:51:11;21.60;48.30
44121;DHT22;29783;52.504;13.478;2023-05-21T19:53:37;21.50;48.70
44121;DHT22;29783;52.504;13.478;2023-05-21T19:56:02;21.50;48.90
44121;DHT22;29783;52.504;13.478;2023-05-21T19:58:28;21.40;48.90
44121;DHT22;29783;52.504;13.478;2023-05-21T20:00:54;21.30;49.10
44121;DHT22;29783;52.504;13.478;2023-05-21T20:03:23;21.30;49.10
44121;DHT22;29783;52.504;13.478;2023-05-21T20:05:49;21.30;49.30
44121;DHT22;29783;52.504;13.478;2023-05-21T20:08:15;21.30;49.40
44121;DHT22;29783;52.504;13.478;2023-05-21T20:10:41;21.20;49.40
44121;DHT22;29783;52.504;13.478;2023-05-21T20:13:07;21.30;49.20
44121;DHT22;29783;52.504;13.478;2023-05-21T20:15:33;21.30;49.50
44121;DHT22;29783;52.504;13.478;2023-05-21T20:17:59;21.30;49.40
44121;DHT22;29783;52.504;13.478;2023-05-21T20:20:25;21.30;49.60
44121;DHT22;29783;52.504;13.478;2023-05-21T20:22:55;21.30;49.20